Time;durP1;ratioP1;P1;durP2;ratioP2;P2;SDS_P1;SDS_P2;PMS_P1;PMS_P2;Temp;Humidity;BMP_temperature;BMP_pressure;BME280_temperature;BME280_humidity;BME280_pressure;Samples;Min_cycle;Max_cycle;Signal;HPM_P1;HPM_P2
2021/03/26 00:02:23;;;;;;;;;;;4.60;67.80;;;;;;4995554;28;20025;-80
2021/03/26 00:04:49;;;;;;;;;;;4.70;68.10;;;;;;4994381;28;19920;-79
2021/03/26 00:07:14;;;;;;;;;;;4.70;68.00;;;;;;4995198;28;19961;-80
2021/03/26 00:09:40;;;;;;;;;;;4.70;68.10;;;;;;4995420;28;20024;-79
2021/03/26 00:12:11;;;;;;;;;;;4.70;68.20;;;;;;4977353;28;20016;-81
2021/03/26 00:14:37;;;;;;;;;;;4.70;68.20;;;;;;4995318;28;20350;-79
2021/03/26 00:17:02;;;;;;;;;;;4.70;68.40;;;;;;4995542;28;20020;-79
2021/03/26 00:19:28;;;;;;;;;;;4.70;68.40;;;;;;4978283;28;20476;-79
2021/03/26 00:21:54;;;;;;;;;;;4.70;68.30;;;;;;4995288;28;20005;-80
2021/03/26 00:24:20;;;;;;;;;;;4.70;68.30;;;;;;4995453;28;19910;-81
2021/03/26 00:26:45;;;;;;;;;;;4.60;68.30;;;;;;4996039;28;19957;-78
2021/03/26 00:29:11;;;;;;;;;;;4.50;68.30;;;;;;4977573;28;20283;-80
2021/03/26 00:31:41;;;;;;;;;;;4.50;68.20;;;;;;4978698;28;19910;-81
2021/03/26 00:34:06;;;;;;;;;;;4.40;68.20;;;;;;5001064;28;19949;-79
2021/03/26 00:36:34;;;;;;;;;;;4.40;68.20;;;;;;4977947;28;19925;-78
2021/03/26 00:39:00;;;;;;;;;;;4.40;68.00;;;;;;4994687;28;19910;-79
2021/03/26 00:41:25;;;;;;;;;;;4.40;68.00;;;;;;4997148;28;19932;-80
2021/03/26 00:43:51;;;;;;;;;;;4.40;68.10;;;;;;5014105;28;20306;-79
2021/03/26 00:46:16;;;;;;;;;;;4.30;67.90;;;;;;5014812;28;19925;-78
2021/03/26 00:48:42;;;;;;;;;;;4.30;68.00;;;;;;5014063;28;20465;-79
2021/03/26 00:51:08;;;;;;;;;;;4.30;67.90;;;;;;5013580;28;19909;-78
2021/03/26 00:53:34;;;;;;;;;;;4.20;68.00;;;;;;5013981;28;19921;-80
2021/03/26 00:56:01;;;;;;;;;;;4.20;68.00;;;;;;5012475;28;19909;-80
2021/03/26 00:58:28;;;;;;;;;;;4.20;68.30;;;;;;5013805;28;19909;-80
2021/03/26 01:00:53;;;;;;;;;;;4.10;68.30;;;;;;5013880;28;19964;-79
2021/03/26 01:03:20;;;;;;;;;;;4.10;68.30;;;;;;5013850;28;19910;-79
2021/03/26 01:05:49;;;;;;;;;;;4.10;68.30;;;;;;5012624;28;19910;-79
2021/03/26 01:08:15;;;;;;;;;;;4.10;68.20;;;;;;5013581;28;19952;-80
2021/03/26 01:10:43;;;;;;;;;;;4.10;68.30;;;;;;4996028;28;20299;-79
2021/03/26 01:13:10;;;;;;;;;;;4.10;68.30;;;;;;5013450;28;19925;-79
2021/03/26 01:15:35;;;;;;;;;;;4.00;68.20;;;;;;5013586;28;20287;-79
2021/03/26 01:18:02;;;;;;;;;;;4.00;68.30;;;;;;4996195;28;19936;-78
2021/03/26 01:20:31;;;;;;;;;;;4.00;68.50;;;;;;5013397;28;19909;-78
2021/03/26 01:22:57;;;;;;;;;;;4.00;68.40;;;;;;5013636;28;20289;-77
2021/03/26 01:25:25;;;;;;;;;;;4.00;68.50;;;;;;5012325;28;19909;-81
2021/03/26 01:27:51;;;;;;;;;;;4.00;68.40;;;;;;5013803;28;19916;-79
2021/03/26 01:30:17;;;;;;;;;;;4.00;68.40;;;;;;5013632;28;19909;-81
2021/03/26 01:32:43;;;;;;;;;;;4.00;68.50;;;;;;5013472;28;19918;-78
2021/03/26 01:35:10;;;;;;;;;;;4.00;68.70;;;;;;4992122;28;19936;-79
2021/03/26 01:37:36;;;;;;;;;;;4.00;68.90;;;;;;5020271;28;19932;-79
2021/03/26 01:40:03;;;;;;;;;;;3.90;69.10;;;;;;4999258;28;20379;-78
2021/03/26 01:42:33;;;;;;;;;;;3.90;69.00;;;;;;5026252;28;19933;-79
2021/03/26 01:44:59;;;;;;;;;;;3.90;69.30;;;;;;5015380;28;19917;-78
2021/03/26 01:47:25;;;;;;;;;;;3.90;69.50;;;;;;5014659;28;20406;-79
2021/03/26 01:49:51;;;;;;;;;;;3.80;69.50;;;;;;5013545;28;19910;-78
2021/03/26 01:52:17;;;;;;;;;;;3.80;69.50;;;;;;5013119;28;19918;-79
2021/03/26 01:54:42;;;;;;;;;;;3.80;69.50;;;;;;5019362;28;19910;-78
2021/03/26 01:57:08;;;;;;;;;;;3.90;69.60;;;;;;5012942;28;19914;-79
2021/03/26 01:59:34;;;;;;;;;;;3.80;69.80;;;;;;5013124;28;19909;-80
2021/03/26 02:02:03;;;;;;;;;;;3.80;69.80;;;;;;5014618;28;20321;-79
2021/03/26 02:04:35;;;;;;;;;;;3.80;70.00;;;;;;5016876;28;19929;-77
2021/03/26 02:07:00;;;;;;;;;;;3.70;70.10;;;;;;5017178;28;19925;-78
2021/03/26 02:09:34;;;;;;;;;;;3.70;70.30;;;;;;5003774;28;20005;-77
2021/03/26 02:12:06;;;;;;;;;;;3.80;70.20;;;;;;5018292;28;19926;-77
2021/03/26 02:14:34;;;;;;;;;;;3.80;69.90;;;;;;5010946;28;19917;-78
2021/03/26 02:16:59;;;;;;;;;;;3.70;69.70;;;;;;5016890;28;20049;-78
2021/03/26 02:19:37;;;;;;;;;;;3.70;70.00;;;;;;5017007;28;19945;-78
2021/03/26 02:22:03;;;;;;;;;;;3.70;70.30;;;;;;5017093;28;20001;-78
2021/03/26 02:24:29;;;;;;;;;;;3.70;70.70;;;;;;5017450;28;20361;-77
2021/03/26 02:27:02;;;;;;;;;;;3.70;70.80;;;;;;5022061;28;19916;-78
2021/03/26 02:29:30;;;;;;;;;;;3.70;70.90;;;;;;5018432;28;20358;-78
2021/03/26 02:31:59;;;;;;;;;;;3.60;70.90;;;;;;5016572;28;20012;-78
2021/03/26 02:34:25;;;;;;;;;;;3.60;71.10;;;;;;5016776;28;19909;-77
2021/03/26 02:36:56;;;;;;;;;;;3.50;71.00;;;;;;5016347;28;20359;-80
2021/03/26 02:39:25;;;;;;;;;;;3.50;71.40;;;;;;5016588;28;19909;-78
2021/03/26 02:41:53;;;;;;;;;;;3.50;71.60;;;;;;5016221;28;19968;-79
2021/03/26 02:44:23;;;;;;;;;;;3.40;71.70;;;;;;5016461;28;20371;-78
2021/03/26 02:46:48;;;;;;;;;;;3.40;72.00;;;;;;5016296;28;19914;-77
2021/03/26 02:49:17;;;;;;;;;;;3.40;72.20;;;;;;5016173;28;19910;-78
2021/03/26 02:51:47;;;;;;;;;;;3.40;72.00;;;;;;5015090;28;20286;-78
2021/03/26 02:54:19;;;;;;;;;;;3.40;71.90;;;;;;5016196;28;19909;-79
2021/03/26 02:56:49;;;;;;;;;;;3.30;71.70;;;;;;5016164;28;20015;-78
2021/03/26 02:59:18;;;;;;;;;;;3.30;71.90;;;;;;5012406;28;19910;-78
2021/03/26 03:01:45;;;;;;;;;;;3.30;71.90;;;;;;5006438;28;19928;-78
2021/03/26 03:04:16;;;;;;;;;;;3.20;71.70;;;;;;5015734;28;20290;-77
2021/03/26 03:06:45;;;;;;;;;;;3.30;72.30;;;;;;5015917;28;20007;-78
2021/03/26 03:09:11;;;;;;;;;;;3.30;72.90;;;;;;5016699;28;19917;-81
2021/03/26 03:11:49;;;;;;;;;;;3.20;72.90;;;;;;5006629;28;19965;-78
2021/03/26 03:14:30;;;;;;;;;;;3.20;73.40;;;;;;5014581;28;19917;-77
2021/03/26 03:17:16;;;;;;;;;;;3.20;73.60;;;;;;5015489;28;19909;-78
2021/03/26 03:19:51;;;;;;;;;;;3.20;73.70;;;;;;5016065;28;19977;-79
2021/03/26 03:22:22;;;;;;;;;;;3.30;73.80;;;;;;5003404;28;19935;-78
2021/03/26 03:24:47;;;;;;;;;;;3.20;74.30;;;;;;5016076;28;19914;-78
2021/03/26 03:27:23;;;;;;;;;;;3.20;74.10;;;;;;5015842;28;19910;-79
2021/03/26 03:29:49;;;;;;;;;;;3.20;74.30;;;;;;5015542;28;20013;-79
2021/03/26 03:32:23;;;;;;;;;;;3.20;74.40;;;;;;5015645;28;20422;-80
2021/03/26 03:34:55;;;;;;;;;;;3.20;74.40;;;;;;5015682;28;19921;-78
2021/03/26 03:37:29;;;;;;;;;;;3.20;74.40;;;;;;5015371;28;20359;-79
2021/03/26 03:39:59;;;;;;;;;;;3.20;74.50;;;;;;5015515;28;19910;-78
2021/03/26 03:42:48;;;;;;;;;;;3.20;74.70;;;;;;5015379;28;19922;-79
2021/03/26 03:45:17;;;;;;;;;;;3.20;74.70;;;;;;5004145;28;19983;-80
2021/03/26 03:47:51;;;;;;;;;;;3.20;74.80;;;;;;5015400;28;19909;-78
2021/03/26 03:50:25;;;;;;;;;;;3.30;75.00;;;;;;5015574;28;19919;-78
2021/03/26 03:53:05;;;;;;;;;;;3.30;75.00;;;;;;5002741;28;20013;-76
2021/03/26 03:55:34;;;;;;;;;;;3.30;75.00;;;;;;5015070;28;19909;-77
2021/03/26 03:58:00;;;;;;;;;;;3.40;75.00;;;;;;5008630;28;19917;-77
2021/03/26 04:00:28;;;;;;;;;;;3.40;74.80;;;;;;5008057;28;19910;-78
2021/03/26 04:03:02;;;;;;;;;;;3.40;74.80;;;;;;5015079;28;19963;-78
2021/03/26 04:05:28;;;;;;;;;;;3.50;74.90;;;;;;5015116;28;19919;-77
2021/03/26 04:08:05;;;;;;;;;;;3.50;74.80;;;;;;5014791;28;19996;-79
2021/03/26 04:10:36;;;;;;;;;;;3.60;74.60;;;;;;5014825;28;19917;-78
2021/03/26 04:13:04;;;;;;;;;;;3.60;74.60;;;;;;5014645;28;19925;-78
2021/03/26 04:15:36;;;;;;;;;;;3.60;74.50;;;;;;5015509;28;19916;-79
2021/03/26 04:18:04;;;;;;;;;;;3.60;74.50;;;;;;5022162;28;19910;-77
2021/03/26 04:20:35;;;;;;;;;;;3.60;74.50;;;;;;5020097;28;19910;-77
2021/03/26 04:23:06;;;;;;;;;;;3.60;74.50;;;;;;5015383;28;19975;-76
2021/03/26 04:25:36;;;;;;;;;;;3.60;74.50;;;;;;5013685;28;19979;-79
2021/03/26 04:28:16;;;;;;;;;;;3.70;74.50;;;;;;5014327;28;19913;-77
2021/03/26 04:30:51;;;;;;;;;;;3.80;74.40;;;;;;5003260;28;20286;-77
2021/03/26 04:33:18;;;;;;;;;;;4.00;74.20;;;;;;5014474;28;20340;-77
2021/03/26 04:35:46;;;;;;;;;;;4.20;74.00;;;;;;5013665;28;19916;-77
2021/03/26 04:38:22;;;;;;;;;;;4.30;73.60;;;;;;5014005;28;20411;-78
2021/03/26 04:40:49;;;;;;;;;;;4.50;73.30;;;;;;5013997;28;19909;-77
2021/03/26 04:43:19;;;;;;;;;;;4.60;73.50;;;;;;5013827;28;20303;-78
2021/03/26 04:45:47;;;;;;;;;;;4.70;72.60;;;;;;5014327;28;19914;-78
2021/03/26 04:48:22;;;;;;;;;;;4.90;72.50;;;;;;5014214;28;19916;-77
2021/03/26 04:51:00;;;;;;;;;;;4.90;72.70;;;;;;5014214;28;19918;-76
2021/03/26 04:53:39;;;;;;;;;;;5.10;71.90;;;;;;5013623;28;19944;-78
2021/03/26 04:56:09;;;;;;;;;;;5.20;72.10;;;;;;4996411;28;20290;-79
2021/03/26 04:58:37;;;;;;;;;;;5.20;71.30;;;;;;5013782;28;20367;-78
2021/03/26 05:01:05;;;;;;;;;;;5.20;71.10;;;;;;4996354;28;20000;-80
2021/03/26 05:03:31;;;;;;;;;;;5.10;71.00;;;;;;5012210;28;19936;-78
2021/03/26 05:05:58;;;;;;;;;;;5.10;71.10;;;;;;5012394;28;19910;-79
2021/03/26 05:08:25;;;;;;;;;;;5.10;71.00;;;;;;5013666;28;19917;-78
2021/03/26 05:10:51;;;;;;;;;;;5.20;71.20;;;;;;4996166;28;19910;-77
2021/03/26 05:13:21;;;;;;;;;;;5.30;71.10;;;;;;5013519;28;19928;-78
2021/03/26 05:15:54;;;;;;;;;;;5.40;70.80;;;;;;4995693;28;20375;-79
2021/03/26 05:18:20;;;;;;;;;;;5.50;70.50;;;;;;4995702;28;19913;-80
2021/03/26 05:20:48;;;;;;;;;;;5.70;70.00;;;;;;5012071;28;19956;-78
2021/03/26 05:23:20;;;;;;;;;;;5.70;69.20;;;;;;5013085;28;20413;-77
2021/03/26 05:25:47;;;;;;;;;;;5.80;68.90;;;;;;5012951;28;19959;-78
2021/03/26 05:28:18;;;;;;;;;;;5.80;68.60;;;;;;5012966;28;19910;-79
2021/03/26 05:30:45;;;;;;;;;;;5.80;68.30;;;;;;5013047;28;19910;-79
2021/03/26 05:33:14;;;;;;;;;;;5.90;68.30;;;;;;5016789;28;19918;-80
2021/03/26 05:35:49;;;;;;;;;;;6.00;68.30;;;;;;5013021;28;19961;-78
2021/03/26 05:38:20;;;;;;;;;;;6.00;68.20;;;;;;5012397;28;20018;-79
2021/03/26 05:40:45;;;;;;;;;;;6.00;68.90;;;;;;5012874;28;20397;-78
2021/03/26 05:43:17;;;;;;;;;;;6.00;68.30;;;;;;5012920;28;20027;-77
2021/03/26 05:46:00;;;;;;;;;;;6.00;68.20;;;;;;5011763;28;19913;-79
2021/03/26 05:48:46;;;;;;;;;;;5.90;68.00;;;;;;5013149;28;20390;-80
2021/03/26 05:51:30;;;;;;;;;;;5.90;67.80;;;;;;5000790;28;20385;-79
2021/03/26 05:54:00;;;;;;;;;;;5.80;68.00;;;;;;5013054;28;20294;-78
2021/03/26 05:56:26;;;;;;;;;;;5.80;67.90;;;;;;5012813;28;20022;-80
2021/03/26 05:58:52;;;;;;;;;;;5.80;68.10;;;;;;5012553;28;20374;-79
2021/03/26 06:01:23;;;;;;;;;;;5.80;68.00;;;;;;5012530;28;19910;-80
2021/03/26 06:03:58;;;;;;;;;;;5.80;68.20;;;;;;5012836;28;20334;-80
2021/03/26 06:06:41;;;;;;;;;;;5.80;68.30;;;;;;5012545;28;20418;-77
2021/03/26 06:09:39;;;;;;;;;;;5.80;68.30;;;;;;4995877;28;19960;-78
2021/03/26 06:12:13;;;;;;;;;;;5.80;68.50;;;;;;5022268;28;20016;-78
2021/03/26 06:14:48;;;;;;;;;;;5.90;68.50;;;;;;5017466;28;20272;-78
2021/03/26 06:17:40;;;;;;;;;;;6.10;68.40;;;;;;5013070;28;19909;-78
2021/03/26 06:20:24;;;;;;;;;;;6.20;68.20;;;;;;4974050;28;19909;-78
2021/03/26 06:22:55;;;;;;;;;;;6.20;67.90;;;;;;5013519;28;20004;-79
2021/03/26 06:25:24;;;;;;;;;;;6.00;67.80;;;;;;5011567;28;19959;-78
2021/03/26 06:27:57;;;;;;;;;;;6.00;67.80;;;;;;5012677;28;20248;-78
2021/03/26 06:30:40;;;;;;;;;;;6.00;67.60;;;;;;5012625;28;19910;-77
2021/03/26 06:33:25;;;;;;;;;;;6.10;67.60;;;;;;5012467;28;19917;-79
2021/03/26 06:36:02;;;;;;;;;;;6.10;67.70;;;;;;4999844;28;20000;-77
2021/03/26 06:38:31;;;;;;;;;;;6.30;67.60;;;;;;5012553;28;19918;-80
2021/03/26 06:41:17;;;;;;;;;;;6.50;67.40;;;;;;5011595;28;19997;-80
2021/03/26 06:43:52;;;;;;;;;;;6.70;66.90;;;;;;5011932;28;20378;-78
2021/03/26 06:46:36;;;;;;;;;;;6.70;66.40;;;;;;5013057;28;20358;-79
2021/03/26 06:49:07;;;;;;;;;;;6.60;66.30;;;;;;5015461;28;19936;-78
2021/03/26 06:51:44;;;;;;;;;;;6.50;66.40;;;;;;5015848;28;19909;-78
2021/03/26 06:54:18;;;;;;;;;;;6.60;66.70;;;;;;5015854;28;19976;-80
2021/03/26 06:57:03;;;;;;;;;;;6.70;66.60;;;;;;4998714;28;19917;-76
2021/03/26 06:59:35;;;;;;;;;;;7.20;66.90;;;;;;5015855;28;19917;-78
2021/03/26 07:02:01;;;;;;;;;;;8.00;66.50;;;;;;5015561;28;20000;-77
2021/03/26 07:04:35;;;;;;;;;;;8.70;64.70;;;;;;5010440;28;20121;-78
2021/03/26 07:07:26;;;;;;;;;;;9.20;62.90;;;;;;5015710;28;19954;-80
2021/03/26 07:10:08;;;;;;;;;;;9.50;60.80;;;;;;4992870;28;19910;-78
2021/03/26 07:12:45;;;;;;;;;;;9.80;59.90;;;;;;5015657;28;20295;-80
2021/03/26 07:15:11;;;;;;;;;;;10.00;59.60;;;;;;4998098;28;20271;-79
2021/03/26 07:17:43;;;;;;;;;;;10.20;57.60;;;;;;5015589;28;19933;-78
2021/03/26 07:20:18;;;;;;;;;;;10.50;58.10;;;;;;4997674;28;19914;-78
2021/03/26 07:22:43;;;;;;;;;;;11.20;56.60;;;;;;5015452;28;20256;-78
2021/03/26 07:25:09;;;;;;;;;;;12.20;56.10;;;;;;5015390;28;19913;-78
2021/03/26 07:27:43;;;;;;;;;;;13.30;53.00;;;;;;5015348;28;20429;-79
2021/03/26 07:30:18;;;;;;;;;;;14.30;52.10;;;;;;5015305;28;20319;-78
2021/03/26 07:32:52;;;;;;;;;;;15.40;49.30;;;;;;5015313;28;20008;-78
2021/03/26 07:35:20;;;;;;;;;;;16.30;45.80;;;;;;5015037;28;19910;-78
2021/03/26 07:37:46;;;;;;;;;;;16.80;44.30;;;;;;4997409;28;20359;-78
2021/03/26 07:40:14;;;;;;;;;;;17.40;43.60;;;;;;5015477;28;19956;-78
2021/03/26 07:42:59;;;;;;;;;;;17.80;43.00;;;;;;5014771;28;19952;-79
2021/03/26 07:45:36;;;;;;;;;;;18.10;40.20;;;;;;5014720;28;19914;-78
2021/03/26 07:48:02;;;;;;;;;;;18.20;40.70;;;;;;5014967;28;19965;-78
2021/03/26 07:50:39;;;;;;;;;;;18.70;40.00;;;;;;5015100;28;20346;-79
2021/03/26 07:53:20;;;;;;;;;;;18.90;38.40;;;;;;4997754;28;19968;-78
2021/03/26 07:55:49;;;;;;;;;;;19.20;39.10;;;;;;4997110;28;20351;-78
2021/03/26 07:58:33;;;;;;;;;;;19.30;37.30;;;;;;5014903;28;19948;-76
2021/03/26 08:00:58;;;;;;;;;;;19.30;37.80;;;;;;5014011;28;19944;-78
2021/03/26 08:03:42;;;;;;;;;;;19.30;37.10;;;;;;5014775;28;19910;-78
2021/03/26 08:06:19;;;;;;;;;;;19.00;36.80;;;;;;5022096;28;19937;-78
2021/03/26 08:09:03;;;;;;;;;;;18.90;37.80;;;;;;5028219;28;19909;-79
2021/03/26 08:11:29;;;;;;;;;;;18.40;37.70;;;;;;5013897;28;19941;-78
2021/03/26 08:14:08;;;;;;;;;;;18.10;38.00;;;;;;5014818;28;20002;-79
2021/03/26 08:17:03;;;;;;;;;;;18.20;38.50;;;;;;4997255;28;20390;-81
2021/03/26 08:19:29;;;;;;;;;;;18.00;37.40;;;;;;4943025;28;19919;-80
2021/03/26 08:22:13;;;;;;;;;;;17.80;38.60;;;;;;5012381;28;20447;-78
2021/03/26 08:24:44;;;;;;;;;;;18.50;38.30;;;;;;5015672;28;20300;-80
2021/03/26 08:27:22;;;;;;;;;;;18.90;37.30;;;;;;5014641;28;20366;-78
2021/03/26 08:30:11;;;;;;;;;;;19.00;36.80;;;;;;5014789;28;20383;-78
2021/03/26 08:33:09;;;;;;;;;;;19.30;36.80;;;;;;5003917;28;19917;-78
2021/03/26 08:35:53;;;;;;;;;;;18.20;36.60;;;;;;4966582;28;19910;-78
2021/03/26 08:38:21;;;;;;;;;;;17.80;37.80;;;;;;5014647;28;19920;-81
2021/03/26 08:40:55;;;;;;;;;;;17.30;38.00;;;;;;5014025;28;19909;-78
2021/03/26 08:43:21;;;;;;;;;;;16.70;38.70;;;;;;5014428;28;19925;-79
2021/03/26 08:45:59;;;;;;;;;;;16.70;39.30;;;;;;5014041;28;19939;-80
2021/03/26 08:48:25;;;;;;;;;;;17.50;39.20;;;;;;5014203;28;19910;-79
2021/03/26 08:50:59;;;;;;;;;;;18.30;38.40;;;;;;5014090;28;19920;-78
2021/03/26 08:53:28;;;;;;;;;;;18.80;38.20;;;;;;5012986;28;19923;-79
2021/03/26 08:56:12;;;;;;;;;;;19.60;36.90;;;;;;5013883;28;20368;-77
2021/03/26 08:58:47;;;;;;;;;;;19.90;35.90;;;;;;5014025;28;19910;-77
2021/03/26 09:01:21;;;;;;;;;;;19.00;36.20;;;;;;5012773;28;19914;-78
2021/03/26 09:04:06;;;;;;;;;;;19.00;36.50;;;;;;5013882;28;20000;-78
2021/03/26 09:06:37;;;;;;;;;;;19.50;36.10;;;;;;5013844;28;19914;-79
2021/03/26 09:09:03;;;;;;;;;;;19.90;35.60;;;;;;5013716;28;19910;-79
2021/03/26 09:11:47;;;;;;;;;;;19.90;35.50;;;;;;5013759;28;20287;-78
2021/03/26 09:14:20;;;;;;;;;;;20.60;35.20;;;;;;5013756;28;20071;-77
2021/03/26 09:16:52;;;;;;;;;;;21.10;34.20;;;;;;5014161;28;19971;-78
2021/03/26 09:19:21;;;;;;;;;;;20.90;33.70;;;;;;5015779;28;19914;-78
2021/03/26 09:21:53;;;;;;;;;;;21.10;33.80;;;;;;4995903;28;19909;-77
2021/03/26 09:24:19;;;;;;;;;;;20.50;33.30;;;;;;5013635;28;19933;-79
2021/03/26 09:27:03;;;;;;;;;;;20.30;33.70;;;;;;5011977;28;19909;-80
2021/03/26 09:29:47;;;;;;;;;;;19.90;34.10;;;;;;5013542;28;19914;-78
2021/03/26 09:32:19;;;;;;;;;;;19.70;34.40;;;;;;5013742;28;19917;-78
2021/03/26 09:35:05;;;;;;;;;;;19.50;34.60;;;;;;5013764;28;19988;-79
2021/03/26 09:37:42;;;;;;;;;;;19.50;34.90;;;;;;4994977;28;19910;-79
2021/03/26 09:40:34;;;;;;;;;;;19.80;34.80;;;;;;5013268;28;20263;-78
2021/03/26 09:43:06;;;;;;;;;;;20.00;34.60;;;;;;4977708;28;20363;-79
2021/03/26 09:45:38;;;;;;;;;;;19.90;34.70;;;;;;5012753;28;20390;-77
2021/03/26 09:48:22;;;;;;;;;;;19.90;34.60;;;;;;5013258;28;19914;-78
2021/03/26 09:50:56;;;;;;;;;;;19.60;34.70;;;;;;5013297;28;19948;-78
2021/03/26 09:53:22;;;;;;;;;;;19.60;35.10;;;;;;5013068;28;19975;-77
2021/03/26 09:55:48;;;;;;;;;;;19.50;35.10;;;;;;4996243;28;19957;-78
2021/03/26 09:58:42;;;;;;;;;;;19.50;35.10;;;;;;5003031;28;20375;-80
2021/03/26 10:01:08;;;;;;;;;;;19.30;34.90;;;;;;4985773;28;19913;-78
2021/03/26 10:03:39;;;;;;;;;;;19.00;35.30;;;;;;5013391;28;19910;-79
2021/03/26 10:06:24;;;;;;;;;;;18.70;35.50;;;;;;5014096;28;20051;-79
2021/03/26 10:09:02;;;;;;;;;;;18.50;35.90;;;;;;5003211;28;19918;-80
2021/03/26 10:11:40;;;;;;;;;;;18.10;36.40;;;;;;5013410;28;20337;-78
2021/03/26 10:14:13;;;;;;;;;;;18.00;36.60;;;;;;5013063;28;19924;-79
2021/03/26 10:16:38;;;;;;;;;;;17.60;37.10;;;;;;5013027;28;19924;-78
2021/03/26 10:19:06;;;;;;;;;;;17.00;37.80;;;;;;5013162;28;19910;-79
2021/03/26 10:21:32;;;;;;;;;;;16.50;38.60;;;;;;5011586;28;19992;-79
2021/03/26 10:24:04;;;;;;;;;;;16.00;39.40;;;;;;5016044;28;19972;-79
2021/03/26 10:26:34;;;;;;;;;;;15.80;40.10;;;;;;5017341;28;20287;-77
2021/03/26 10:29:12;;;;;;;;;;;15.40;40.30;;;;;;5016166;28;19920;-78
2021/03/26 10:31:39;;;;;;;;;;;14.90;41.30;;;;;;5016940;28;19977;-79
2021/03/26 10:34:06;;;;;;;;;;;14.60;41.70;;;;;;5018062;28;19941;-78
2021/03/26 10:36:33;;;;;;;;;;;14.60;42.30;;;;;;4999583;28;20333;-78
2021/03/26 10:39:34;;;;;;;;;;;14.30;42.70;;;;;;5016602;28;19913;-78
2021/03/26 10:42:09;;;;;;;;;;;14.20;43.30;;;;;;4936677;29;19930;-78
2021/03/26 10:44:35;;;;;;;;;;;14.00;43.70;;;;;;4921001;29;19911;-79
2021/03/26 10:47:20;;;;;;;;;;;13.80;44.40;;;;;;4936667;29;19987;-78
2021/03/26 10:49:49;;;;;;;;;;;13.80;44.50;;;;;;4936221;29;20385;-79
2021/03/26 10:52:19;;;;;;;;;;;14.00;44.50;;;;;;4919795;29;20399;-80
2021/03/26 10:54:50;;;;;;;;;;;14.00;44.60;;;;;;4936577;29;19962;-77
2021/03/26 10:57:21;;;;;;;;;;;13.90;44.70;;;;;;4936344;29;19997;-79
2021/03/26 10:59:53;;;;;;;;;;;13.80;45.10;;;;;;4937340;29;19954;-82
2021/03/26 11:02:38;;;;;;;;;;;13.50;45.80;;;;;;4920319;29;19910;-78
2021/03/26 11:05:23;;;;;;;;;;;13.40;46.40;;;;;;4936090;29;19911;-78
2021/03/26 11:07:57;;;;;;;;;;;13.40;46.50;;;;;;4920453;29;20318;-79
2021/03/26 11:10:26;;;;;;;;;;;13.50;46.60;;;;;;4936621;29;19918;-80
2021/03/26 11:12:56;;;;;;;;;;;13.70;46.50;;;;;;4920193;29;19922;-79
2021/03/26 11:15:29;;;;;;;;;;;13.80;46.50;;;;;;4949374;28;19920;-79
2021/03/26 11:18:14;;;;;;;;;;;13.60;46.50;;;;;;5008091;28;19996;-78
2021/03/26 11:20:51;;;;;;;;;;;13.70;46.60;;;;;;4983658;28;19910;-79
2021/03/26 11:23:30;;;;;;;;;;;13.70;46.70;;;;;;5011675;28;19914;-78
2021/03/26 11:26:07;;;;;;;;;;;13.50;47.40;;;;;;5015830;28;19916;-78
2021/03/26 11:28:39;;;;;;;;;;;13.40;47.80;;;;;;5001808;28;20398;-77
2021/03/26 11:31:23;;;;;;;;;;;13.30;48.20;;;;;;5015635;28;20287;-79
2021/03/26 11:33:52;;;;;;;;;;;13.40;48.20;;;;;;5013413;28;20330;-79
2021/03/26 11:36:36;;;;;;;;;;;13.60;48.10;;;;;;5015247;28;19914;-78
2021/03/26 11:39:13;;;;;;;;;;;13.70;48.20;;;;;;5015175;28;20371;-78
2021/03/26 11:41:49;;;;;;;;;;;13.70;48.00;;;;;;5015213;28;19925;-78
2021/03/26 11:44:17;;;;;;;;;;;13.70;48.20;;;;;;4997694;28;19910;-79
2021/03/26 11:46:45;;;;;;;;;;;13.50;48.40;;;;;;4998144;28;19917;-77
2021/03/26 11:49:15;;;;;;;;;;;13.40;48.50;;;;;;5015324;28;20083;-78
2021/03/26 11:51:54;;;;;;;;;;;13.40;48.70;;;;;;5015276;28;19909;-77
2021/03/26 11:54:27;;;;;;;;;;;13.50;48.30;;;;;;5015038;28;20056;-77
2021/03/26 11:56:59;;;;;;;;;;;13.30;48.20;;;;;;5014101;28;19914;-77
2021/03/26 11:59:47;;;;;;;;;;;13.10;48.30;;;;;;5015045;28;19916;-77
2021/03/26 12:02:16;;;;;;;;;;;12.90;48.80;;;;;;5015255;28;19909;-78
2021/03/26 12:04:44;;;;;;;;;;;12.70;49.10;;;;;;5011657;28;19944;-78
2021/03/26 12:07:15;;;;;;;;;;;12.60;49.60;;;;;;5015211;28;19909;-78
2021/03/26 12:09:51;;;;;;;;;;;12.40;50.10;;;;;;5018885;28;19932;-77
2021/03/26 12:12:21;;;;;;;;;;;12.40;50.40;;;;;;5031965;28;19914;-79
2021/03/26 12:15:02;;;;;;;;;;;12.30;50.60;;;;;;5021604;28;19977;-79
2021/03/26 12:17:28;;;;;;;;;;;12.20;51.50;;;;;;5014798;28;19913;-79
2021/03/26 12:19:58;;;;;;;;;;;12.10;51.00;;;;;;5014577;28;19955;-77
2021/03/26 12:22:30;;;;;;;;;;;12.30;50.80;;;;;;4997125;28;19909;-79
2021/03/26 12:25:11;;;;;;;;;;;12.30;50.90;;;;;;5014860;28;19956;-77
2021/03/26 12:27:41;;;;;;;;;;;12.30;50.90;;;;;;5014411;28;19909;-79
2021/03/26 12:30:19;;;;;;;;;;;12.30;50.70;;;;;;5014381;28;19964;-77
2021/03/26 12:32:53;;;;;;;;;;;12.20;50.00;;;;;;5014591;28;19940;-77
2021/03/26 12:35:19;;;;;;;;;;;12.00;50.10;;;;;;5013052;28;20330;-79
2021/03/26 12:37:49;;;;;;;;;;;12.00;50.20;;;;;;5012977;28;19936;-77
2021/03/26 12:40:35;;;;;;;;;;;12.00;49.90;;;;;;5013079;28;19910;-78
2021/03/26 12:43:07;;;;;;;;;;;12.10;49.70;;;;;;5013478;28;19976;-77
2021/03/26 12:45:39;;;;;;;;;;;12.20;49.80;;;;;;5012360;28;19996;-76
2021/03/26 12:48:11;;;;;;;;;;;12.30;49.50;;;;;;5014187;28;19947;-79
2021/03/26 12:50:38;;;;;;;;;;;12.20;49.20;;;;;;5014066;28;20412;-78
2021/03/26 12:53:24;;;;;;;;;;;12.00;50.10;;;;;;5013816;28;19918;-76
2021/03/26 12:55:56;;;;;;;;;;;11.90;49.60;;;;;;4987181;28;19957;-79
2021/03/26 12:58:30;;;;;;;;;;;11.80;49.80;;;;;;5013919;28;19909;-77
2021/03/26 13:00:56;;;;;;;;;;;11.70;50.00;;;;;;5014737;28;19909;-78
2021/03/26 13:03:40;;;;;;;;;;;11.60;50.10;;;;;;5014649;28;19910;-78
2021/03/26 13:06:10;;;;;;;;;;;11.60;50.30;;;;;;5013796;28;19920;-77
2021/03/26 13:08:38;;;;;;;;;;;11.60;50.50;;;;;;5012535;28;20326;-78
2021/03/26 13:11:30;;;;;;;;;;;11.60;50.50;;;;;;5012546;28;19936;-78
2021/03/26 13:13:56;;;;;;;;;;;11.60;50.60;;;;;;5001659;28;19918;-77
2021/03/26 13:16:30;;;;;;;;;;;11.50;50.60;;;;;;4994335;28;19916;-78
2021/03/26 13:19:04;;;;;;;;;;;11.50;50.70;;;;;;5013745;28;20350;-78
2021/03/26 13:21:33;;;;;;;;;;;11.40;50.70;;;;;;5013312;28;20290;-77
2021/03/26 13:24:23;;;;;;;;;;;11.40;50.90;;;;;;5012675;28;21266;-78
2021/03/26 13:26:50;;;;;;;;;;;11.50;51.50;;;;;;4959485;28;19917;-79
2021/03/26 13:29:18;;;;;;;;;;;11.50;50.90;;;;;;5013719;28;19916;-78
2021/03/26 13:31:45;;;;;;;;;;;11.60;51.50;;;;;;5013225;28;19913;-78
2021/03/26 13:34:23;;;;;;;;;;;11.60;50.80;;;;;;4995505;28;19917;-79
2021/03/26 13:37:00;;;;;;;;;;;11.50;50.70;;;;;;5013045;28;19913;-77
2021/03/26 13:39:26;;;;;;;;;;;11.50;50.80;;;;;;5011891;28;19910;-79
2021/03/26 13:42:07;;;;;;;;;;;11.30;50.10;;;;;;5013384;28;20028;-77
2021/03/26 13:44:41;;;;;;;;;;;11.30;50.40;;;;;;5013892;28;19914;-79
2021/03/26 13:47:22;;;;;;;;;;;11.40;50.60;;;;;;5013485;28;19977;-80
2021/03/26 13:49:57;;;;;;;;;;;11.40;50.80;;;;;;4995696;28;19913;-78
2021/03/26 13:52:28;;;;;;;;;;;11.40;50.90;;;;;;5013141;28;20029;-77
2021/03/26 13:54:59;;;;;;;;;;;11.30;50.90;;;;;;4995442;28;20371;-77
2021/03/26 13:57:27;;;;;;;;;;;11.20;51.00;;;;;;5012251;28;19980;-78
2021/03/26 14:00:02;;;;;;;;;;;11.10;51.20;;;;;;5013247;28;19909;-77
2021/03/26 14:02:35;;;;;;;;;;;11.10;51.20;;;;;;4995257;28;19909;-80
2021/03/26 14:05:07;;;;;;;;;;;11.00;51.30;;;;;;5013117;28;19910;-76
2021/03/26 14:07:36;;;;;;;;;;;11.00;51.30;;;;;;5013657;28;19955;-77
2021/03/26 14:10:05;;;;;;;;;;;10.80;51.30;;;;;;4995464;28;19910;-79
2021/03/26 14:12:33;;;;;;;;;;;10.80;51.50;;;;;;4996536;28;20302;-78
2021/03/26 14:15:02;;;;;;;;;;;10.80;51.50;;;;;;5014562;28;19914;-78
2021/03/26 14:17:39;;;;;;;;;;;10.80;51.50;;;;;;5002802;28;19925;-78
2021/03/26 14:20:07;;;;;;;;;;;10.70;51.50;;;;;;5018689;28;19910;-77
2021/03/26 14:22:51;;;;;;;;;;;10.70;51.30;;;;;;5011577;28;20325;-77
2021/03/26 14:25:22;;;;;;;;;;;10.70;51.20;;;;;;5011780;28;20220;-77
2021/03/26 14:27:48;;;;;;;;;;;10.70;51.20;;;;;;5013362;28;20378;-79
2021/03/26 14:30:15;;;;;;;;;;;10.70;51.10;;;;;;5011633;28;20068;-77
2021/03/26 14:33:00;;;;;;;;;;;10.60;50.90;;;;;;5011875;28;19915;-79
2021/03/26 14:35:31;;;;;;;;;;;10.60;50.90;;;;;;5013192;28;19956;-78
2021/03/26 14:38:03;;;;;;;;;;;10.50;50.50;;;;;;5011507;28;19957;-78
2021/03/26 14:40:32;;;;;;;;;;;10.40;50.70;;;;;;5012877;28;19910;-77
2021/03/26 14:43:03;;;;;;;;;;;10.30;50.70;;;;;;5003337;28;19926;-78
2021/03/26 14:45:39;;;;;;;;;;;10.30;51.50;;;;;;4993624;28;19914;-78
2021/03/26 14:48:15;;;;;;;;;;;10.20;50.90;;;;;;4993055;28;19980;-76
2021/03/26 14:50:42;;;;;;;;;;;10.20;51.50;;;;;;4992942;28;20002;-78
2021/03/26 14:53:14;;;;;;;;;;;10.30;51.00;;;;;;4992592;28;19964;-78
2021/03/26 14:55:41;;;;;;;;;;;10.30;51.10;;;;;;4990713;28;19964;-77